createdAt,value
2022-12-08T00:01:15.518Z,13.37
2022-12-08T00:03:43.558Z,10.77
2022-12-08T00:06:50.292Z,11.37
2022-12-08T00:09:38.567Z,12.57
2022-12-08T00:12:08.116Z,12.47
2022-12-08T00:14:40.847Z,8.70
2022-12-08T00:17:09.869Z,11.70
2022-12-08T00:19:39.186Z,10.77
2022-12-08T00:22:10.329Z,10.80
2022-12-08T00:24:39.887Z,9.63
2022-12-08T00:27:09.504Z,10.17
2022-12-08T00:29:37.054Z,12.57
2022-12-08T00:32:04.956Z,13.60
2022-12-08T00:34:33.124Z,10.43
2022-12-08T00:37:00.677Z,11.20
2022-12-08T00:39:27.706Z,10.97
2022-12-08T00:42:12.674Z,9.63
2022-12-08T00:44:43.844Z,10.17
2022-12-08T00:47:11.645Z,8.27
2022-12-08T00:49:38.561Z,8.90
2022-12-08T00:52:05.605Z,11.83
2022-12-08T00:54:32.638Z,10.40
2022-12-08T00:56:59.576Z,10.80
2022-12-08T00:59:26.641Z,13.07
2022-12-08T01:01:53.521Z,12.77
2022-12-08T01:04:21.015Z,12.03
2022-12-08T01:06:48.259Z,9.63
2022-12-08T01:09:16.306Z,9.60
2022-12-08T01:11:44.762Z,9.33
2022-12-08T01:14:12.898Z,10.10
2022-12-08T01:16:41.596Z,8.17
2022-12-08T01:19:11.235Z,8.50
2022-12-08T01:21:38.260Z,10.47
2022-12-08T01:24:05.649Z,8.67
2022-12-08T01:26:32.581Z,7.00
2022-12-08T01:28:59.540Z,10.73
2022-12-08T01:31:26.594Z,12.27
2022-12-08T01:33:53.592Z,7.27
2022-12-08T01:36:25.140Z,11.30
2022-12-08T01:38:53.518Z,11.70
2022-12-08T01:41:23.390Z,12.13
2022-12-08T01:44:08.562Z,11.83
2022-12-08T01:46:38.742Z,11.60
2022-12-08T01:49:19.608Z,11.03
2022-12-08T01:51:59.195Z,8.47
2022-12-08T01:54:42.726Z,13.03
2022-12-08T01:57:17.068Z,13.33
2022-12-08T01:59:51.396Z,8.67
2022-12-08T02:02:18.429Z,10.57
2022-12-08T02:04:45.537Z,7.77
2022-12-08T02:07:14.813Z,12.33
2022-12-08T02:09:42.090Z,10.97
2022-12-08T02:12:10.455Z,17.50
2022-12-08T02:15:01.837Z,5.50
2022-12-08T02:17:57.569Z,15.63
2022-12-08T02:20:38.046Z,11.57
2022-12-08T02:23:23.241Z,12.70
2022-12-08T02:26:37.040Z,8.37
2022-12-08T02:29:18.610Z,9.71
2022-12-08T02:32:12.017Z,9.40
2022-12-08T02:35:08.097Z,11.13
2022-12-08T02:38:18.517Z,10.63
2022-12-08T02:40:58.081Z,10.97
2022-12-08T02:43:45.546Z,11.90
2022-12-08T02:46:18.197Z,10.73
2022-12-08T02:48:45.699Z,10.43
2022-12-08T02:51:12.616Z,13.37
2022-12-08T02:53:40.665Z,9.47
2022-12-08T02:56:38.073Z,15.87
2022-12-08T02:59:28.213Z,11.27
2022-12-08T03:02:25.841Z,10.97
2022-12-08T03:05:31.916Z,10.32
2022-12-08T03:08:41.462Z,8.87
2022-12-08T03:11:33.555Z,12.70
2022-12-08T03:14:03.876Z,8.07
2022-12-08T03:16:34.244Z,9.60
2022-12-08T03:19:09.729Z,12.37
2022-12-08T03:21:38.313Z,12.03
2022-12-08T03:24:08.186Z,10.87
2022-12-08T03:26:41.871Z,12.50
2022-12-08T03:29:08.805Z,7.90
2022-12-08T03:31:50.633Z,13.10
2022-12-08T03:34:18.897Z,14.33
2022-12-08T03:36:46.330Z,11.83
2022-12-08T03:39:13.413Z,11.60
2022-12-08T03:41:40.315Z,7.53
2022-12-08T03:44:07.457Z,9.53
2022-12-08T03:46:34.376Z,10.83
2022-12-08T03:49:01.386Z,13.17
2022-12-08T03:51:28.501Z,14.27
2022-12-08T03:53:55.466Z,9.97
2022-12-08T03:56:31.801Z,11.90
2022-12-08T03:58:59.333Z,15.77
2022-12-08T04:01:27.501Z,10.67
2022-12-08T04:03:54.551Z,9.60
2022-12-08T04:06:22.228Z,5.80
2022-12-08T04:08:50.827Z,12.53
2022-12-08T04:11:18.992Z,23.77
2022-12-08T04:13:46.263Z,11.80
2022-12-08T04:16:22.694Z,14.90
2022-12-08T04:18:50.039Z,9.30
2022-12-08T04:21:17.187Z,20.60
2022-12-08T04:23:44.149Z,12.47
2022-12-08T04:26:11.898Z,17.67
2022-12-08T04:28:38.926Z,13.17
2022-12-08T04:31:06.530Z,12.83
2022-12-08T04:33:33.575Z,10.93
2022-12-08T04:36:00.586Z,15.10
2022-12-08T04:38:28.531Z,15.03
2022-12-08T04:40:55.453Z,13.73
2022-12-08T04:43:22.538Z,13.20
2022-12-08T04:45:49.529Z,11.07
2022-12-08T04:48:16.588Z,13.73
2022-12-08T04:50:45.383Z,11.83
2022-12-08T04:53:13.757Z,11.83
2022-12-08T04:55:43.854Z,22.10
2022-12-08T04:58:15.659Z,14.03
2022-12-08T05:00:43.395Z,14.80
2022-12-08T05:03:10.554Z,10.27
2022-12-08T05:05:37.512Z,10.83
2022-12-08T05:08:05.177Z,19.37
2022-12-08T05:10:32.843Z,14.90
2022-12-08T05:13:00.195Z,15.37
2022-12-08T05:15:27.142Z,16.63
2022-12-08T05:17:54.120Z,14.50
2022-12-08T05:20:21.049Z,10.77
2022-12-08T05:22:47.993Z,19.33
2022-12-08T05:25:15.145Z,15.33
2022-12-08T05:27:43.260Z,6.77
2022-12-08T05:30:10.461Z,12.37
2022-12-08T05:32:37.460Z,10.37
2022-12-08T05:35:04.705Z,11.63
2022-12-08T05:37:31.714Z,12.40
2022-12-08T05:39:58.751Z,14.17
2022-12-08T05:42:25.680Z,8.63
2022-12-08T05:44:52.804Z,7.57
2022-12-08T05:47:19.908Z,15.60
2022-12-08T05:49:46.897Z,10.30
2022-12-08T05:52:13.914Z,14.17
2022-12-08T05:54:40.788Z,11.27
2022-12-08T05:57:07.635Z,9.63
2022-12-08T05:59:34.595Z,21.87
2022-12-08T06:02:01.686Z,11.83
2022-12-08T06:04:28.652Z,13.90
2022-12-08T06:06:55.868Z,15.13
2022-12-08T06:09:22.800Z,12.70
2022-12-08T06:11:49.770Z,9.53
2022-12-08T06:14:16.816Z,10.30
2022-12-08T06:16:43.864Z,16.43
2022-12-08T06:19:10.901Z,14.00
2022-12-08T06:21:37.825Z,15.87
2022-12-08T06:24:04.898Z,13.13
2022-12-08T06:26:31.815Z,5.90
2022-12-08T06:29:00.814Z,13.50
2022-12-08T06:31:28.493Z,12.90
2022-12-08T06:33:55.586Z,9.10
2022-12-08T06:36:24.967Z,8.90
2022-12-08T06:38:52.728Z,11.53
2022-12-08T06:41:19.814Z,11.40
2022-12-08T06:43:46.780Z,10.17
2022-12-08T06:46:17.381Z,12.03
2022-12-08T06:48:44.696Z,10.87
2022-12-08T06:51:13.009Z,6.20
2022-12-08T06:53:40.948Z,4.70
2022-12-08T06:56:08.295Z,7.07
2022-12-08T06:58:36.113Z,9.83
2022-12-08T07:01:09.127Z,9.77
2022-12-08T07:03:37.537Z,10.63
2022-12-08T07:06:05.329Z,8.37
2022-12-08T07:08:33.630Z,7.97
2022-12-08T07:11:06.204Z,8.40
2022-12-08T07:13:33.246Z,11.93
2022-12-08T07:16:00.108Z,8.80
2022-12-08T07:18:27.017Z,15.23
2022-12-08T07:20:53.902Z,6.93
2022-12-08T07:23:20.843Z,8.03
2022-12-08T07:25:47.803Z,9.03
2022-12-08T07:28:14.820Z,8.83
2022-12-08T07:30:41.809Z,7.17
2022-12-08T07:33:08.874Z,15.77
2022-12-08T07:35:35.892Z,15.53
2022-12-08T07:38:02.972Z,7.83
2022-12-08T07:40:29.877Z,11.20
2022-12-08T07:42:56.843Z,10.00
2022-12-08T07:45:31.112Z,14.27
2022-12-08T07:47:58.659Z,8.77
2022-12-08T07:50:25.533Z,8.87
2022-12-08T07:52:52.431Z,13.00
2022-12-08T07:55:19.493Z,9.27
2022-12-08T07:57:46.359Z,9.63
2022-12-08T08:00:14.305Z,7.33
2022-12-08T08:02:41.889Z,7.30
2022-12-08T08:05:09.535Z,9.07
2022-12-08T08:07:37.378Z,9.37
2022-12-08T08:10:05.785Z,18.77
2022-12-08T08:12:33.534Z,7.67
2022-12-08T08:15:01.850Z,7.87
2022-12-08T08:17:31.328Z,12.57
2022-12-08T08:19:58.383Z,10.20
2022-12-08T08:22:26.885Z,8.83
2022-12-08T08:24:54.451Z,10.10
2022-12-08T08:27:21.495Z,7.23
2022-12-08T08:29:48.497Z,8.13
2022-12-08T08:32:15.395Z,10.60
2022-12-08T08:34:42.400Z,16.57
2022-12-08T08:37:09.352Z,11.97
2022-12-08T08:39:36.404Z,10.10
2022-12-08T08:42:03.446Z,7.20
2022-12-08T08:44:30.391Z,11.40
2022-12-08T08:46:57.408Z,13.17
2022-12-08T08:49:24.676Z,9.03
2022-12-08T08:51:52.334Z,12.77
2022-12-08T08:54:20.486Z,7.10
2022-12-08T08:56:48.477Z,13.30
2022-12-08T08:59:15.437Z,6.77
2022-12-08T09:01:42.382Z,9.40
2022-12-08T09:04:10.365Z,14.07
2022-12-08T09:06:38.151Z,21.40
2022-12-08T09:09:05.667Z,8.70
2022-12-08T09:11:33.202Z,14.23
2022-12-08T09:14:00.480Z,15.93
2022-12-08T09:16:27.523Z,31.13
2022-12-08T09:18:54.604Z,16.10
2022-12-08T09:21:25.887Z,9.40
2022-12-08T09:23:55.056Z,10.33
2022-12-08T09:26:22.623Z,12.10
2022-12-08T09:28:51.519Z,6.13
2022-12-08T09:31:19.962Z,13.30
2022-12-08T09:33:47.827Z,11.03
2022-12-08T09:36:15.635Z,9.87
2022-12-08T09:38:42.627Z,12.87
2022-12-08T09:41:48.501Z,10.73
2022-12-08T09:44:55.293Z,11.73
2022-12-08T09:47:35.497Z,8.07
2022-12-08T09:50:18.091Z,11.80
2022-12-08T09:52:59.836Z,10.93
2022-12-08T09:55:53.156Z,9.03
2022-12-08T09:58:22.222Z,9.40
2022-12-08T10:00:49.177Z,9.50
2022-12-08T10:03:17.068Z,11.07
2022-12-08T10:05:56.079Z,12.33
2022-12-08T10:08:36.392Z,10.03
2022-12-08T10:11:14.416Z,16.10
2022-12-08T10:14:06.845Z,9.80
2022-12-08T10:16:39.493Z,16.20
2022-12-08T10:19:25.605Z,10.00
2022-12-08T10:21:53.855Z,10.80
2022-12-08T10:25:00.305Z,13.67
2022-12-08T10:27:28.022Z,11.20
2022-12-08T10:29:55.029Z,11.47
2022-12-08T10:32:24.649Z,10.87
2022-12-08T10:35:12.255Z,8.67
2022-12-08T10:37:40.025Z,9.00
2022-12-08T10:40:19.094Z,9.63
2022-12-08T10:42:53.622Z,9.47
2022-12-08T10:45:23.685Z,10.37
2022-12-08T10:48:18.466Z,10.73
2022-12-08T10:50:55.761Z,10.53
2022-12-08T10:53:24.832Z,9.40
2022-12-08T10:56:05.103Z,12.97
2022-12-08T10:58:42.484Z,10.47
2022-12-08T11:01:21.687Z,11.33
2022-12-08T11:04:01.237Z,10.93
2022-12-08T11:06:35.057Z,15.37
2022-12-08T11:09:15.755Z,17.43
2022-12-08T11:11:51.850Z,11.17
2022-12-08T11:14:32.477Z,19.23
2022-12-08T11:17:08.745Z,13.40
2022-12-08T11:19:41.032Z,11.40
2022-12-08T11:22:30.075Z,11.83
2022-12-08T11:25:02.908Z,15.77
2022-12-08T11:27:33.272Z,11.57
2022-12-08T11:30:02.223Z,9.13
2022-12-08T11:32:31.361Z,9.43
2022-12-08T11:35:03.945Z,9.23
2022-12-08T11:37:40.665Z,15.83
2022-12-08T11:40:23.331Z,15.40
2022-12-08T11:42:59.959Z,15.40
2022-12-08T11:45:32.571Z,27.92
2022-12-08T11:48:16.990Z,13.50
2022-12-08T11:50:55.581Z,15.13
2022-12-08T11:53:44.530Z,10.10
2022-12-08T11:56:35.013Z,13.57
2022-12-08T11:59:25.913Z,10.90
2022-12-08T12:01:53.486Z,11.60
2022-12-08T12:04:42.460Z,13.63
2022-12-08T12:07:48.155Z,12.10
2022-12-08T12:10:27.083Z,11.57
2022-12-08T12:13:02.804Z,20.83
2022-12-08T12:15:54.917Z,13.60
2022-12-08T12:18:50.122Z,10.93
2022-12-08T12:21:26.607Z,15.00
2022-12-08T12:24:10.427Z,19.05
2022-12-08T12:26:49.337Z,13.03
2022-12-08T12:29:23.913Z,17.03
2022-12-08T12:31:59.336Z,15.80
2022-12-08T12:34:44.744Z,12.93
2022-12-08T12:37:15.397Z,12.40
2022-12-08T12:40:00.914Z,17.87
2022-12-08T12:42:44.450Z,13.73
2022-12-08T12:45:17.109Z,16.83
2022-12-08T12:47:55.859Z,15.30
2022-12-08T12:50:32.506Z,9.97
2022-12-08T12:53:15.672Z,12.90
2022-12-08T12:55:45.843Z,13.70
2022-12-08T12:58:28.001Z,13.00
2022-12-08T13:01:10.362Z,16.03
2022-12-08T13:04:02.687Z,28.10
2022-12-08T13:06:41.247Z,10.93
2022-12-08T13:09:20.729Z,13.93
2022-12-08T13:11:52.939Z,17.97
2022-12-08T13:14:46.797Z,15.37
2022-12-08T13:17:23.304Z,19.40
2022-12-08T13:19:55.990Z,19.23
2022-12-08T13:22:47.406Z,14.03
2022-12-08T13:25:38.952Z,14.73
2022-12-08T13:28:27.910Z,13.53
2022-12-08T13:31:02.085Z,9.87
2022-12-08T13:33:38.988Z,13.63
2022-12-08T13:36:17.518Z,18.27
2022-12-08T13:38:47.380Z,15.47
2022-12-08T13:41:21.983Z,19.37
2022-12-08T13:44:50.227Z,15.30
2022-12-08T13:58:38.317Z,10.37
2022-12-08T14:01:12.355Z,18.00
2022-12-08T14:06:51.784Z,15.27
2022-12-08T14:09:37.933Z,16.23
2022-12-08T14:12:13.897Z,11.60
2022-12-08T14:17:32.446Z,15.67
2022-12-08T14:20:21.896Z,15.37
2022-12-08T14:22:50.388Z,15.57
2022-12-08T14:25:19.072Z,22.80
2022-12-08T14:27:47.945Z,15.73
2022-12-08T14:30:15.113Z,14.17
2022-12-08T14:32:41.933Z,18.63
2022-12-08T14:35:08.858Z,16.53
2022-12-08T14:37:35.774Z,10.77
2022-12-08T14:40:25.074Z,21.60
2022-12-08T14:43:05.266Z,15.43
2022-12-08T14:45:34.957Z,17.80
2022-12-08T14:48:23.607Z,11.80
2022-12-08T14:51:12.333Z,16.23
2022-12-08T14:54:00.125Z,14.67
2022-12-08T14:56:39.236Z,16.33
2022-12-08T14:59:06.139Z,11.87
2022-12-08T15:01:34.375Z,18.87
2022-12-08T15:04:07.996Z,20.73
2022-12-08T15:06:35.361Z,21.90
2022-12-08T15:09:16.676Z,22.67
2022-12-08T15:11:44.177Z,15.73
2022-12-08T15:14:29.354Z,17.23
2022-12-08T15:16:56.861Z,12.37
2022-12-08T15:19:32.427Z,20.93
2022-12-08T15:22:11.042Z,18.37
2022-12-08T15:24:38.116Z,18.80
2022-12-08T15:27:05.122Z,17.57
2022-12-08T15:29:32.352Z,22.63
2022-12-08T15:32:01.604Z,19.10
2022-12-08T15:34:28.724Z,23.50
2022-12-08T15:36:55.717Z,15.63
2022-12-08T15:39:34.881Z,18.77
2022-12-08T15:42:03.456Z,21.07
2022-12-08T15:44:32.856Z,20.13
2022-12-08T15:47:00.122Z,19.73
2022-12-08T15:49:27.342Z,20.10
2022-12-08T15:52:01.950Z,30.40
2022-12-08T15:54:34.892Z,15.33
2022-12-08T15:59:49.267Z,19.85
2022-12-08T16:02:22.333Z,19.33
2022-12-08T16:07:38.401Z,16.17
2022-12-08T16:10:07.999Z,20.03
2022-12-08T16:16:00.714Z,21.67
2022-12-08T16:18:32.808Z,20.58
2022-12-08T16:21:19.042Z,18.73
2022-12-08T16:23:47.251Z,17.45
2022-12-08T16:27:01.068Z,20.40
2022-12-08T16:29:07.598Z,27.70
2022-12-08T16:31:34.840Z,24.83
2022-12-08T16:34:01.963Z,25.30
2022-12-08T16:36:28.989Z,15.47
2022-12-08T16:38:55.877Z,24.47
2022-12-08T16:41:41.349Z,21.27
2022-12-08T16:44:08.422Z,26.10
2022-12-08T16:46:36.105Z,14.70
2022-12-08T16:49:04.735Z,21.67
2022-12-08T16:51:31.772Z,24.33
2022-12-08T16:53:58.807Z,17.77
2022-12-08T16:56:32.542Z,23.23
2022-12-08T16:59:01.747Z,22.30
2022-12-08T17:01:28.835Z,25.00
2022-12-08T17:04:29.105Z,24.20
2022-12-08T17:06:42.754Z,26.08
2022-12-08T17:09:09.644Z,22.03
2022-12-08T17:11:43.081Z,21.47
2022-12-08T17:14:14.238Z,22.03
2022-12-08T17:16:42.586Z,26.63
2022-12-08T17:19:09.944Z,23.37
2022-12-08T17:21:36.989Z,17.17
2022-12-08T17:24:04.897Z,26.57
2022-12-08T17:26:31.856Z,24.87
2022-12-08T17:29:00.888Z,26.13
2022-12-08T17:31:30.613Z,27.97
2022-12-08T17:34:00.072Z,24.83
2022-12-08T17:36:27.074Z,24.17
2022-12-08T17:38:54.541Z,21.83
2022-12-08T17:41:21.586Z,24.80
2022-12-08T17:43:48.531Z,23.60
2022-12-08T17:46:19.558Z,27.63
2022-12-08T17:48:47.414Z,24.73
2022-12-08T17:51:15.034Z,21.80
2022-12-08T17:53:42.102Z,28.13
2022-12-08T17:56:18.880Z,24.80
2022-12-08T17:58:52.596Z,26.50
2022-12-08T18:01:21.598Z,26.03
2022-12-08T18:03:48.670Z,23.93
2022-12-08T18:06:17.774Z,20.37
2022-12-08T18:08:45.245Z,23.33
2022-12-08T18:11:15.880Z,26.17
2022-12-08T18:13:42.816Z,25.40
2022-12-08T18:16:10.256Z,31.33
2022-12-08T18:18:37.289Z,27.37
2022-12-08T18:21:04.525Z,23.33
2022-12-08T18:23:31.779Z,23.00
2022-12-08T18:25:59.025Z,16.27
2022-12-08T18:28:26.002Z,23.47
2022-12-08T18:30:52.960Z,26.20
2022-12-08T18:33:19.961Z,20.20
2022-12-08T18:35:46.902Z,18.00
2022-12-08T18:38:14.391Z,23.83
2022-12-08T18:40:41.394Z,22.47
2022-12-08T18:43:08.738Z,26.77
2022-12-08T18:45:38.824Z,21.30
2022-12-08T18:48:08.340Z,21.33
2022-12-08T18:50:35.273Z,27.47
2022-12-08T18:53:02.219Z,24.73
2022-12-08T18:55:29.297Z,23.90
2022-12-08T18:57:56.241Z,20.63
2022-12-08T19:00:23.336Z,27.00
2022-12-08T19:02:50.376Z,29.27
2022-12-08T19:05:17.703Z,22.47
2022-12-08T19:07:45.831Z,30.10
2022-12-08T19:10:13.214Z,23.53
2022-12-08T19:12:40.338Z,26.77
2022-12-08T19:15:08.242Z,25.40
2022-12-08T19:17:35.421Z,19.20
2022-12-08T19:20:02.529Z,24.37
2022-12-08T19:22:30.426Z,22.87
2022-12-08T19:24:57.389Z,23.83
2022-12-08T19:27:24.289Z,21.13
2022-12-08T19:29:51.324Z,25.37
2022-12-08T19:32:18.563Z,27.47
2022-12-08T19:34:45.473Z,25.80
2022-12-08T19:37:13.083Z,21.73
2022-12-08T19:39:59.279Z,21.63
2022-12-08T19:42:45.115Z,21.63
2022-12-08T19:45:15.766Z,19.10
2022-12-08T19:47:43.094Z,24.43
2022-12-08T19:50:30.645Z,23.73
2022-12-08T19:52:57.904Z,26.10
2022-12-08T19:55:25.929Z,24.07
2022-12-08T19:57:53.522Z,27.73
2022-12-08T20:00:21.382Z,28.77
2022-12-08T20:02:48.496Z,26.57
2022-12-08T20:05:16.144Z,24.67
2022-12-08T20:07:43.705Z,28.87
2022-12-08T20:10:22.176Z,28.23
2022-12-08T20:12:49.237Z,29.77
2022-12-08T20:15:16.326Z,21.17
2022-12-08T20:17:43.547Z,20.73
2022-12-08T20:20:12.208Z,23.83
2022-12-08T20:22:39.193Z,31.27
2022-12-08T20:25:06.655Z,33.23
2022-12-08T20:27:33.726Z,31.87
2022-12-08T20:30:00.670Z,33.43
2022-12-08T20:32:27.781Z,31.50
2022-12-08T20:34:54.778Z,26.03
2022-12-08T20:37:21.652Z,28.40
2022-12-08T20:39:48.872Z,27.57
2022-12-08T20:42:15.872Z,26.70
2022-12-08T20:44:44.678Z,24.20
2022-12-08T20:47:12.879Z,25.80
2022-12-08T20:49:40.085Z,28.07
2022-12-08T20:52:08.265Z,25.07
2022-12-08T20:54:37.014Z,29.73
2022-12-08T20:57:04.388Z,25.67
2022-12-08T20:59:31.561Z,29.93
2022-12-08T21:02:00.679Z,23.57
2022-12-08T21:04:28.120Z,25.10
2022-12-08T21:06:55.144Z,28.10
2022-12-08T21:09:22.475Z,24.93
2022-12-08T21:11:49.533Z,22.10
2022-12-08T21:14:16.510Z,23.27
2022-12-08T21:16:43.468Z,27.13
2022-12-08T21:19:11.380Z,33.17
2022-12-08T21:21:38.837Z,31.50
2022-12-08T21:24:06.339Z,25.63
2022-12-08T21:26:33.449Z,27.53
2022-12-08T21:29:00.391Z,26.47
2022-12-08T21:31:29.512Z,26.70
2022-12-08T21:33:56.664Z,28.17
2022-12-08T21:36:23.926Z,25.33
2022-12-08T21:38:51.307Z,27.13
2022-12-08T21:41:41.745Z,26.97
2022-12-08T21:44:11.034Z,26.87
2022-12-08T21:46:38.546Z,27.63
2022-12-08T21:49:05.701Z,24.47
2022-12-08T21:51:33.877Z,22.47
2022-12-08T21:54:01.060Z,26.37
2022-12-08T21:56:28.193Z,21.97
2022-12-08T21:58:55.265Z,27.33
2022-12-08T22:01:22.333Z,26.73
2022-12-08T22:03:49.456Z,28.63
2022-12-08T22:06:16.723Z,30.97
2022-12-08T22:08:43.999Z,28.87
2022-12-08T22:11:12.091Z,28.40
2022-12-08T22:13:41.266Z,28.07
2022-12-08T22:16:11.519Z,22.63
2022-12-08T22:18:38.849Z,29.60
2022-12-08T22:21:15.427Z,28.73
2022-12-08T22:23:42.935Z,28.17
2022-12-08T22:26:11.415Z,30.87
2022-12-08T22:28:41.670Z,31.83
2022-12-08T22:31:14.632Z,29.47
2022-12-08T22:33:42.768Z,32.73
2022-12-08T22:36:22.389Z,36.47
2022-12-08T22:38:50.594Z,30.83
2022-12-08T22:41:18.251Z,25.27
2022-12-08T22:43:46.007Z,26.43
2022-12-08T22:46:16.312Z,33.77
2022-12-08T22:48:43.770Z,31.27
2022-12-08T22:51:11.487Z,34.13
2022-12-08T22:53:38.836Z,27.97
2022-12-08T22:56:07.059Z,31.93
2022-12-08T22:58:34.457Z,31.37
2022-12-08T23:01:01.356Z,33.07
2022-12-08T23:03:28.458Z,31.93
2022-12-08T23:05:55.663Z,33.53
2022-12-08T23:08:23.741Z,30.43
2022-12-08T23:10:52.316Z,31.23
2022-12-08T23:13:20.172Z,34.27
2022-12-08T23:15:47.771Z,27.87
2022-12-08T23:18:19.167Z,27.20
2022-12-08T23:20:46.949Z,36.80
2022-12-08T23:23:14.506Z,29.67
2022-12-08T23:25:43.079Z,36.00
2022-12-08T23:28:10.745Z,30.67
2022-12-08T23:30:40.442Z,31.20
2022-12-08T23:33:07.848Z,30.27
2022-12-08T23:35:35.052Z,30.50
2022-12-08T23:38:02.166Z,33.17
2022-12-08T23:40:29.062Z,34.13
2022-12-08T23:42:56.101Z,32.07
2022-12-08T23:45:23.009Z,30.20
2022-12-08T23:47:49.992Z,34.73
2022-12-08T23:50:17.344Z,36.53
2022-12-08T23:52:44.825Z,28.03
2022-12-08T23:55:11.806Z,29.83
2022-12-08T23:57:40.090Z,32.27
